x

New York Harbor Entrance - 15 Nm Se Of Breezy Point , Ny (44065) Wave Buoy

3:50am - Fri 30th Jan 2015 All times are EST. -5 hours from GMT.

  • Sig Wave height 3.3ft
  • Swell Direction
  • Peak Period 5s
  • Average Period 4s
  • Wind
    18mph, 22mph gusts
  • Sea Temp 39°f
  • Air Temp 39°f
  • Sea Pressure 1011.3mb
  • New York Harbor Entrance - 15 Nm Se Of Breezy Point , Ny
  • New York Harbor Entrance - 15 Nm Se Of Breezy Point , Ny

More Historic Weather Station data

Upgrade to MSW Pro to gain access to the past 30 days of data for over 8000 Wavebouys and Weather Stations around the globe.

Join Pro

Comparision Forecast

View Surf forecast
   
Fri 01/30 3:50am 3.5ft 5s 4s 18 22 mph 1011.3mb 39f 39f
2:50am 2.5ft 10s 4s 16 18 mph 1012.3mb 39f 40f
1:50am 3ft 5s 4s 11 13 mph 1013.5mb 39f 39f
12:50am 3ft 5s 4s 9 11 mph 1014.6mb 39f 37f
Thu 01/29 11:50pm 3ft 4s 4s 16 18 mph 1015.8mb 40f 38f
10:50pm 3ft 5s 4s 13 16 mph 1016.4mb 39f 37f
9:50pm 3ft 4s 4s 16 20 mph 1017.4mb 39f 38f
8:50pm 3ft 4s 4s 18 25 mph 1017.8mb 39f 38f
7:50pm 2.5ft 11s 4s 18 22 mph 1018.5mb 39f 38f
6:50pm 2ft 10s 4s 16 20 mph 1019.4mb 39f 37f
5:50pm 2ft 11s 5s 13 18 mph 1020.3mb 39f 35f
4:50pm 2ft 11s  -  11 13 mph 1021mb 39f 34f
3:50pm 2ft 11s 6s 11 13 mph 1021.4mb 39f 32f
2:50pm 2ft 11s 6s 7 9 mph 1022.8mb 40f 31f
12:50pm 2.5ft 11s 6s 4 9 mph 1024mb 40f 29f
11:50am 2ft 11s 5s  -  4 mph 1025.6mb 40f 29f
10:50am 2ft 11s 5s 4 7 mph 1026.4mb 40f 28f
9:50am 2ft 10s 5s 7 11 mph 1026.5mb 39f 27f
8:50am 2ft 11s 5s 7 9 mph 1027.2mb 39f 26f
7:50am 2.5ft 11s 5s 9 11 mph 1027.1mb 39f 26f
6:50am 2.5ft 11s 5s 11 16 mph 1026.2mb 39f 26f
5:50am 2.5ft 12s 4s 13 18 mph 1025.7mb 39f 26f
4:50am 2.5ft 11s 4s 13 18 mph 1025.5mb 39f 27f
3:50am 2.5ft 3s 4s 16 20 mph 1025.5mb 39f 27f
2:50am 2.5ft 11s 4s 20 22 mph 1025.3mb 39f 27f
1:50am 2.5ft 12s 4s 16 22 mph 1025mb 39f 28f
12:50am 2.5ft 11s 4s 16 18 mph 1024.8mb 40f 29f
Wed 01/28 11:50pm 2.5ft 4s 4s 16 18 mph 1024.4mb 40f 30f
10:50pm 3ft 12s 4s 20 25 mph 1024mb 40f 31f
9:50pm 3ft 12s 4s 20 25 mph 1023.4mb 40f 33f
8:50pm 2.5ft 12s 4s 20 25 mph 1023mb 40f 34f
7:50pm 2.5ft 12s 4s 20 22 mph 1022.4mb 40f 34f
6:50pm 3ft 12s 4s 20 25 mph 1021.5mb 40f 35f
5:50pm 3ft 12s 4s 18 22 mph 1020.5mb 40f 34f
4:50pm 3ft 13s 4s 20 25 mph 1019.3mb 40f 34f
3:50pm 3ft 12s 4s 20 22 mph 1018.5mb 40f 33f
2:50pm 3ft 12s 5s 20 25 mph 1017.6mb 40f 32f
1:50pm 3.5ft 13s 4s 18 25 mph 1017.1mb 40f 30f
12:50pm 3ft 13s 4s 18 22 mph 1017.3mb 40f 28f
11:50am 3.5ft 13s 5s 18 22 mph 1017.6mb 40f 26f
10:50am 3.5ft 4s 4s 20 25 mph 1017.6mb 40f 24f
9:50am 4ft 13s 4s 20 27 mph 1017mb 40f 23f
8:50am 4.5ft 14s 5s 22 29 mph 1016.1mb 40f 23f
7:50am 4ft 14s 4s 25 31 mph 1015.2mb 40f 22f
6:50am 4ft 15s 4s 25 34 mph 1014.1mb 40f 22f
5:50am 4ft 13s 5s 25 29 mph 1013.2mb 40f 21f
4:50am 4.5ft 14s 5s 27 29 mph 1012.4mb 40f 21f
3:50am 4.5ft 14s 5s 25 29 mph 1012.1mb 40f 22f
2:50am 4.5ft 12s 5s 22 29 mph 1011.6mb 40f 22f
1:50am 5ft 14s 5s 22 27 mph 1010.8mb 40f 22f
12:50am 4.5ft 14s 5s 22 29 mph 1010mb 40f 23f
Tue 01/27 11:50pm 4.5ft 12s 5s 22 27 mph 1009.4mb 40f 24f
10:50pm 5ft 14s 5s 27 36 mph 1008.8mb 40f 26f
9:50pm 5ft 14s 6s 22 29 mph 1008.1mb 40f 27f
8:50pm 5ft 11s 6s 18 22 mph 1007.3mb 40f 29f
7:50pm 5ft 11s 6s 18 25 mph 1006.7mb 40f 29f
6:50pm 5.5ft 11s 6s 22 27 mph 1006.1mb 40f 29f
5:50pm 6ft 12s 6s 22 27 mph 1005mb 40f 29f
4:50pm 6ft 12s 6s 22 27 mph 1003.9mb 40f 29f
3:50pm 6.5ft 13s 6s 22 27 mph 1003.2mb 40f 29f
2:50pm 8.5ft 13s 7s 25 31 mph 1002.9mb 40f 29f
1:50pm 8.5ft 12s 7s 29 34 mph 1002.6mb 40f 29f
12:50pm 10ft 12s 8s 25 31 mph 1003.2mb 40f 28f
11:50am 11ft 11s 8s 29 36 mph 1003.5mb 40f 27f
10:50am 11ft 11s 7s 29 36 mph 1004mb 40f 27f
9:50am 11.5ft 11s 7s 31 38 mph 1003.6mb 41f 26f
8:50am 13ft 11s 8s 31 40 mph 1003.3mb 42f 25f
7:50am 11.5ft 12s 8s 31 38 mph 1002.9mb 43f 25f
6:50am 12ft 12s 7s 31 40 mph 1002.4mb 43f 25f
5:50am 12.5ft 12s 7s 31 38 mph 1001.9mb 43f 25f
4:50am 11.5ft 11s 7s 29 36 mph 1001.6mb 43f 27f
3:50am 10ft 11s 7s 31 38 mph 1001.6mb 43f 27f
2:50am 10.5ft 11s 7s 31 40 mph 1001.9mb 43f 27f
1:50am 10ft 10s 6s 31 40 mph 1002.1mb 43f 28f
12:50am 11ft 10s 7s 31 40 mph 1002.1mb 44f 29f
Mon 01/26 11:50pm 10.5ft 8s 6s 34 40 mph 1002.1mb 44f 29f
10:50pm 10ft 9s 6s 34 40 mph 1003.1mb 44f 30f
9:50pm 10.5ft 9s 6s 34 40 mph 1003.9mb 44f 30f
8:50pm 11ft 9s 6s 36 43 mph 1005mb 43f 31f
7:50pm 10ft 8s 6s 36 45 mph 1005.5mb 44f 31f
6:50pm 9.5ft 8s 6s 31 40 mph 1007mb 44f 32f
5:50pm 9ft 8s 6s 34 40 mph 1007.3mb 43f 32f
4:50pm 8.5ft 8s 6s 34 40 mph 1006.9mb 43f 32f
3:50pm 8ft 7s 6s 31 38 mph 1007.5mb 43f 31f
2:50pm 8ft 7s 6s 29 36 mph 1008.8mb 43f 30f
1:50pm 8ft 7s 6s 29 36 mph 1009.2mb 43f 29f
12:50pm 7.5ft 7s 5s 31 36 mph 1009.6mb 43f 29f
11:50am 7ft 7s 5s 31 38 mph 1010.9mb 43f 29f
10:50am 6.5ft 6s 5s 29 36 mph 1012.7mb 43f 30f
9:50am 6ft 6s 5s 29 36 mph 1013.5mb 43f 30f